sensor_id;sensor_type;location;lat;lon;timestamp;P1;durP1;ratioP1;P2;durP2;ratioP2
72286;SDS011;60221;45.696;16.076;2022-08-21T00:01:05;9.20;;;2.37;;
72286;SDS011;60221;45.696;16.076;2022-08-21T00:03:35;6.83;;;1.87;;
72286;SDS011;60221;45.696;16.076;2022-08-21T00:06:02;6.40;;;1.83;;
72286;SDS011;60221;45.696;16.076;2022-08-21T00:08:28;6.28;;;2.25;;
72286;SDS011;60221;45.696;16.076;2022-08-21T00:10:54;6.03;;;2.40;;
72286;SDS011;60221;45.696;16.076;2022-08-21T00:13:21;5.20;;;1.95;;
72286;SDS011;60221;45.696;16.076;2022-08-21T00:15:47;5.07;;;2.03;;
72286;SDS011;60221;45.696;16.076;2022-08-21T00:18:14;5.42;;;2.22;;
72286;SDS011;60221;45.696;16.076;2022-08-21T00:20:43;5.83;;;2.30;;
72286;SDS011;60221;45.696;16.076;2022-08-21T00:23:11;7.17;;;2.12;;
72286;SDS011;60221;45.696;16.076;2022-08-21T00:25:39;7.97;;;2.37;;
72286;SDS011;60221;45.696;16.076;2022-08-21T00:28:08;7.60;;;1.80;;
72286;SDS011;60221;45.696;16.076;2022-08-21T00:30:35;8.63;;;2.37;;
72286;SDS011;60221;45.696;16.076;2022-08-21T00:33:02;7.37;;;2.60;;
72286;SDS011;60221;45.696;16.076;2022-08-21T00:35:32;5.87;;;1.90;;
72286;SDS011;60221;45.696;16.076;2022-08-21T00:38:02;5.65;;;2.08;;
72286;SDS011;60221;45.696;16.076;2022-08-21T00:40:35;12.37;;;2.47;;
72286;SDS011;60221;45.696;16.076;2022-08-21T00:43:06;5.37;;;2.08;;
72286;SDS011;60221;45.696;16.076;2022-08-21T00:45:36;6.08;;;2.20;;
72286;SDS011;60221;45.696;16.076;2022-08-21T00:48:04;7.30;;;2.35;;
72286;SDS011;60221;45.696;16.076;2022-08-21T00:50:32;5.62;;;1.50;;
72286;SDS011;60221;45.696;16.076;2022-08-21T00:53:02;5.83;;;2.10;;
72286;SDS011;60221;45.696;16.076;2022-08-21T00:55:32;10.78;;;2.30;;
72286;SDS011;60221;45.696;16.076;2022-08-21T00:58:02;8.08;;;2.00;;
72286;SDS011;60221;45.696;16.076;2022-08-21T01:00:34;5.60;;;2.12;;
72286;SDS011;60221;45.696;16.076;2022-08-21T01:03:10;7.10;;;2.20;;
72286;SDS011;60221;45.696;16.076;2022-08-21T01:05:39;7.17;;;1.87;;
72286;SDS011;60221;45.696;16.076;2022-08-21T01:08:07;7.15;;;1.70;;
72286;SDS011;60221;45.696;16.076;2022-08-21T01:10:35;6.65;;;1.20;;
72286;SDS011;60221;45.696;16.076;2022-08-21T01:13:04;8.00;;;1.87;;
72286;SDS011;60221;45.696;16.076;2022-08-21T01:15:36;6.25;;;1.80;;
72286;SDS011;60221;45.696;16.076;2022-08-21T01:18:07;6.63;;;1.93;;
72286;SDS011;60221;45.696;16.076;2022-08-21T01:20:36;7.17;;;2.12;;
72286;SDS011;60221;45.696;16.076;2022-08-21T01:23:05;6.28;;;1.70;;
72286;SDS011;60221;45.696;16.076;2022-08-21T01:25:33;5.58;;;1.80;;
72286;SDS011;60221;45.696;16.076;2022-08-21T01:28:02;6.55;;;1.87;;
72286;SDS011;60221;45.696;16.076;2022-08-21T01:30:32;6.57;;;1.43;;
72286;SDS011;60221;45.696;16.076;2022-08-21T01:33:02;5.33;;;1.40;;
72286;SDS011;60221;45.696;16.076;2022-08-21T01:35:28;6.40;;;1.72;;
72286;SDS011;60221;45.696;16.076;2022-08-21T01:37:55;9.38;;;1.85;;
72286;SDS011;60221;45.696;16.076;2022-08-21T01:40:22;9.30;;;2.00;;
72286;SDS011;60221;45.696;16.076;2022-08-21T01:42:48;5.40;;;1.70;;
72286;SDS011;60221;45.696;16.076;2022-08-21T01:45:15;9.28;;;1.92;;
72286;SDS011;60221;45.696;16.076;2022-08-21T01:47:42;6.97;;;1.65;;
72286;SDS011;60221;45.696;16.076;2022-08-21T01:50:11;4.85;;;1.42;;
72286;SDS011;60221;45.696;16.076;2022-08-21T01:52:41;7.12;;;1.50;;
72286;SDS011;60221;45.696;16.076;2022-08-21T01:55:08;6.03;;;1.77;;
72286;SDS011;60221;45.696;16.076;2022-08-21T01:57:38;5.53;;;1.62;;
72286;SDS011;60221;45.696;16.076;2022-08-21T02:00:06;4.42;;;1.35;;
72286;SDS011;60221;45.696;16.076;2022-08-21T02:02:40;5.62;;;1.30;;
72286;SDS011;60221;45.696;16.076;2022-08-21T02:05:08;6.87;;;1.70;;
72286;SDS011;60221;45.696;16.076;2022-08-21T02:07:37;5.33;;;1.33;;
72286;SDS011;60221;45.696;16.076;2022-08-21T02:10:09;6.97;;;1.37;;
72286;SDS011;60221;45.696;16.076;2022-08-21T02:12:39;5.65;;;1.22;;
72286;SDS011;60221;45.696;16.076;2022-08-21T02:15:06;5.47;;;1.35;;
72286;SDS011;60221;45.696;16.076;2022-08-21T02:17:41;4.55;;;1.52;;
72286;SDS011;60221;45.696;16.076;2022-08-21T02:20:15;6.90;;;1.57;;
72286;SDS011;60221;45.696;16.076;2022-08-21T02:22:52;6.72;;;1.45;;
72286;SDS011;60221;45.696;16.076;2022-08-21T02:25:20;6.25;;;2.10;;
72286;SDS011;60221;45.696;16.076;2022-08-21T02:27:49;6.25;;;1.60;;
72286;SDS011;60221;45.696;16.076;2022-08-21T02:30:18;5.17;;;1.65;;
72286;SDS011;60221;45.696;16.076;2022-08-21T02:32:51;6.73;;;1.43;;
72286;SDS011;60221;45.696;16.076;2022-08-21T02:35:18;5.03;;;1.70;;
72286;SDS011;60221;45.696;16.076;2022-08-21T02:37:49;6.70;;;1.98;;
72286;SDS011;60221;45.696;16.076;2022-08-21T02:40:21;4.90;;;1.35;;
72286;SDS011;60221;45.696;16.076;2022-08-21T02:42:52;8.63;;;1.60;;
72286;SDS011;60221;45.696;16.076;2022-08-21T02:45:19;6.60;;;1.53;;
72286;SDS011;60221;45.696;16.076;2022-08-21T02:47:50;6.90;;;1.82;;
72286;SDS011;60221;45.696;16.076;2022-08-21T02:50:24;7.45;;;1.55;;
72286;SDS011;60221;45.696;16.076;2022-08-21T02:52:57;8.60;;;2.17;;
72286;SDS011;60221;45.696;16.076;2022-08-21T02:55:26;8.55;;;1.82;;
72286;SDS011;60221;45.696;16.076;2022-08-21T02:57:55;5.53;;;1.80;;
72286;SDS011;60221;45.696;16.076;2022-08-21T03:00:24;7.87;;;2.20;;
72286;SDS011;60221;45.696;16.076;2022-08-21T03:02:54;6.90;;;1.42;;
72286;SDS011;60221;45.696;16.076;2022-08-21T03:05:22;6.95;;;2.08;;
72286;SDS011;60221;45.696;16.076;2022-08-21T03:07:50;7.42;;;2.08;;
72286;SDS011;60221;45.696;16.076;2022-08-21T03:10:17;4.83;;;1.53;;
72286;SDS011;60221;45.696;16.076;2022-08-21T03:12:45;6.15;;;1.35;;
72286;SDS011;60221;45.696;16.076;2022-08-21T03:15:13;4.47;;;1.30;;
72286;SDS011;60221;45.696;16.076;2022-08-21T03:17:43;6.67;;;1.65;;
72286;SDS011;60221;45.696;16.076;2022-08-21T03:20:11;8.43;;;1.70;;
72286;SDS011;60221;45.696;16.076;2022-08-21T03:22:41;5.17;;;1.57;;
72286;SDS011;60221;45.696;16.076;2022-08-21T03:25:07;6.17;;;1.47;;
72286;SDS011;60221;45.696;16.076;2022-08-21T03:27:36;5.95;;;1.65;;
72286;SDS011;60221;45.696;16.076;2022-08-21T03:30:04;8.05;;;1.77;;
72286;SDS011;60221;45.696;16.076;2022-08-21T03:32:32;4.92;;;1.60;;
72286;SDS011;60221;45.696;16.076;2022-08-21T03:35:01;4.83;;;1.60;;
72286;SDS011;60221;45.696;16.076;2022-08-21T03:37:29;6.95;;;1.72;;
72286;SDS011;60221;45.696;16.076;2022-08-21T03:39:55;6.67;;;1.90;;
72286;SDS011;60221;45.696;16.076;2022-08-21T03:42:22;5.10;;;1.25;;
72286;SDS011;60221;45.696;16.076;2022-08-21T03:44:48;6.00;;;1.50;;
72286;SDS011;60221;45.696;16.076;2022-08-21T03:47:14;5.60;;;1.90;;
72286;SDS011;60221;45.696;16.076;2022-08-21T03:49:40;4.30;;;1.75;;
72286;SDS011;60221;45.696;16.076;2022-08-21T03:52:07;4.85;;;1.50;;
72286;SDS011;60221;45.696;16.076;2022-08-21T03:54:32;9.40;;;2.00;;
72286;SDS011;60221;45.696;16.076;2022-08-21T03:56:59;4.97;;;1.52;;
72286;SDS011;60221;45.696;16.076;2022-08-21T03:59:25;5.90;;;1.60;;
72286;SDS011;60221;45.696;16.076;2022-08-21T04:01:52;5.25;;;1.62;;
72286;SDS011;60221;45.696;16.076;2022-08-21T04:04:26;5.58;;;1.55;;
72286;SDS011;60221;45.696;16.076;2022-08-21T04:06:55;4.92;;;1.72;;
72286;SDS011;60221;45.696;16.076;2022-08-21T04:09:23;8.43;;;1.83;;
72286;SDS011;60221;45.696;16.076;2022-08-21T04:11:50;6.67;;;1.62;;
72286;SDS011;60221;45.696;16.076;2022-08-21T04:14:18;5.42;;;1.57;;
72286;SDS011;60221;45.696;16.076;2022-08-21T04:16:45;5.12;;;1.40;;
72286;SDS011;60221;45.696;16.076;2022-08-21T04:19:11;5.53;;;1.20;;
72286;SDS011;60221;45.696;16.076;2022-08-21T04:21:39;4.07;;;1.13;;
72286;SDS011;60221;45.696;16.076;2022-08-21T04:24:07;4.87;;;1.70;;
72286;SDS011;60221;45.696;16.076;2022-08-21T04:26:36;7.60;;;1.67;;
72286;SDS011;60221;45.696;16.076;2022-08-21T04:29:04;5.42;;;1.15;;
72286;SDS011;60221;45.696;16.076;2022-08-21T04:31:35;4.58;;;1.70;;
72286;SDS011;60221;45.696;16.076;2022-08-21T04:34:03;5.40;;;1.20;;
72286;SDS011;60221;45.696;16.076;2022-08-21T04:36:31;5.03;;;1.70;;
72286;SDS011;60221;45.696;16.076;2022-08-21T04:38:59;6.97;;;1.30;;
72286;SDS011;60221;45.696;16.076;2022-08-21T04:41:25;4.87;;;1.65;;
72286;SDS011;60221;45.696;16.076;2022-08-21T04:43:52;5.00;;;1.60;;
72286;SDS011;60221;45.696;16.076;2022-08-21T04:46:20;5.30;;;1.47;;
72286;SDS011;60221;45.696;16.076;2022-08-21T04:48:47;3.75;;;1.10;;
72286;SDS011;60221;45.696;16.076;2022-08-21T04:51:25;3.40;;;1.00;;
72286;SDS011;60221;45.696;16.076;2022-08-21T04:53:52;7.75;;;1.77;;
72286;SDS011;60221;45.696;16.076;2022-08-21T04:56:27;6.35;;;1.90;;
72286;SDS011;60221;45.696;16.076;2022-08-21T04:59:00;6.57;;;1.93;;
72286;SDS011;60221;45.696;16.076;2022-08-21T05:01:32;6.30;;;1.67;;
72286;SDS011;60221;45.696;16.076;2022-08-21T05:04:02;5.50;;;1.40;;
72286;SDS011;60221;45.696;16.076;2022-08-21T05:06:31;4.25;;;1.70;;
72286;SDS011;60221;45.696;16.076;2022-08-21T05:09:02;5.80;;;1.70;;
72286;SDS011;60221;45.696;16.076;2022-08-21T05:11:30;6.10;;;2.00;;
72286;SDS011;60221;45.696;16.076;2022-08-21T05:13:57;5.83;;;1.90;;
72286;SDS011;60221;45.696;16.076;2022-08-21T05:16:24;7.87;;;2.12;;
72286;SDS011;60221;45.696;16.076;2022-08-21T05:18:52;6.37;;;1.92;;
72286;SDS011;60221;45.696;16.076;2022-08-21T05:21:18;7.17;;;2.10;;
72286;SDS011;60221;45.696;16.076;2022-08-21T05:23:44;4.83;;;2.13;;
72286;SDS011;60221;45.696;16.076;2022-08-21T05:26:10;5.35;;;1.87;;
72286;SDS011;60221;45.696;16.076;2022-08-21T05:28:36;7.10;;;1.83;;
72286;SDS011;60221;45.696;16.076;2022-08-21T05:31:02;5.80;;;2.62;;
72286;SDS011;60221;45.696;16.076;2022-08-21T05:33:28;4.70;;;2.02;;
72286;SDS011;60221;45.696;16.076;2022-08-21T05:35:56;7.03;;;2.33;;
72286;SDS011;60221;45.696;16.076;2022-08-21T05:38:25;6.17;;;2.00;;
72286;SDS011;60221;45.696;16.076;2022-08-21T05:40:53;6.58;;;2.15;;
72286;SDS011;60221;45.696;16.076;2022-08-21T05:43:20;8.65;;;2.20;;
72286;SDS011;60221;45.696;16.076;2022-08-21T05:45:47;7.15;;;2.30;;
72286;SDS011;60221;45.696;16.076;2022-08-21T05:50:45;7.05;;;2.30;;
72286;SDS011;60221;45.696;16.076;2022-08-21T05:53:14;5.72;;;1.90;;
72286;SDS011;60221;45.696;16.076;2022-08-21T05:55:42;6.65;;;2.15;;
72286;SDS011;60221;45.696;16.076;2022-08-21T05:58:10;6.33;;;2.70;;
72286;SDS011;60221;45.696;16.076;2022-08-21T06:00:38;4.73;;;2.07;;
72286;SDS011;60221;45.696;16.076;2022-08-21T06:03:10;7.90;;;2.33;;
72286;SDS011;60221;45.696;16.076;2022-08-21T06:05:52;7.33;;;2.25;;
72286;SDS011;60221;45.696;16.076;2022-08-21T06:08:19;9.08;;;1.90;;
72286;SDS011;60221;45.696;16.076;2022-08-21T06:10:47;7.28;;;2.30;;
72286;SDS011;60221;45.696;16.076;2022-08-21T06:13:16;5.13;;;1.70;;
72286;SDS011;60221;45.696;16.076;2022-08-21T06:15:45;4.78;;;1.80;;
72286;SDS011;60221;45.696;16.076;2022-08-21T06:18:12;6.33;;;1.87;;
72286;SDS011;60221;45.696;16.076;2022-08-21T06:20:39;6.83;;;1.70;;
72286;SDS011;60221;45.696;16.076;2022-08-21T06:23:06;9.35;;;1.90;;
72286;SDS011;60221;45.696;16.076;2022-08-21T06:25:32;5.40;;;1.80;;
72286;SDS011;60221;45.696;16.076;2022-08-21T06:28:04;8.38;;;2.10;;
72286;SDS011;60221;45.696;16.076;2022-08-21T06:30:34;4.85;;;1.67;;
72286;SDS011;60221;45.696;16.076;2022-08-21T06:33:02;7.22;;;2.30;;
72286;SDS011;60221;45.696;16.076;2022-08-21T06:35:29;8.18;;;2.50;;
72286;SDS011;60221;45.696;16.076;2022-08-21T06:37:56;5.10;;;1.80;;
72286;SDS011;60221;45.696;16.076;2022-08-21T06:40:23;4.50;;;1.80;;
72286;SDS011;60221;45.696;16.076;2022-08-21T06:42:51;6.80;;;1.90;;
72286;SDS011;60221;45.696;16.076;2022-08-21T06:45:17;7.25;;;2.17;;
72286;SDS011;60221;45.696;16.076;2022-08-21T06:47:44;7.47;;;2.30;;
72286;SDS011;60221;45.696;16.076;2022-08-21T06:50:10;5.17;;;1.97;;
72286;SDS011;60221;45.696;16.076;2022-08-21T06:52:37;8.55;;;2.70;;
72286;SDS011;60221;45.696;16.076;2022-08-21T06:55:04;6.45;;;2.00;;
72286;SDS011;60221;45.696;16.076;2022-08-21T06:57:34;6.40;;;2.30;;
72286;SDS011;60221;45.696;16.076;2022-08-21T07:00:01;6.78;;;2.10;;
72286;SDS011;60221;45.696;16.076;2022-08-21T07:02:32;4.80;;;1.77;;
72286;SDS011;60221;45.696;16.076;2022-08-21T07:04:59;7.45;;;3.37;;
72286;SDS011;60221;45.696;16.076;2022-08-21T07:07:26;9.53;;;2.98;;
72286;SDS011;60221;45.696;16.076;2022-08-21T07:09:52;7.30;;;2.52;;
72286;SDS011;60221;45.696;16.076;2022-08-21T07:12:18;5.00;;;1.90;;
72286;SDS011;60221;45.696;16.076;2022-08-21T07:14:45;10.10;;;3.27;;
72286;SDS011;60221;45.696;16.076;2022-08-21T07:17:11;7.00;;;2.23;;
72286;SDS011;60221;45.696;16.076;2022-08-21T07:19:37;5.97;;;2.22;;
72286;SDS011;60221;45.696;16.076;2022-08-21T07:22:03;5.55;;;1.85;;
72286;SDS011;60221;45.696;16.076;2022-08-21T07:24:30;5.05;;;2.02;;
72286;SDS011;60221;45.696;16.076;2022-08-21T07:26:56;7.83;;;3.30;;
72286;SDS011;60221;45.696;16.076;2022-08-21T07:29:22;6.30;;;2.33;;
72286;SDS011;60221;45.696;16.076;2022-08-21T07:31:48;6.67;;;2.05;;
72286;SDS011;60221;45.696;16.076;2022-08-21T07:34:14;5.40;;;1.80;;
72286;SDS011;60221;45.696;16.076;2022-08-21T07:36:43;4.83;;;1.90;;
72286;SDS011;60221;45.696;16.076;2022-08-21T07:39:10;4.08;;;1.92;;
72286;SDS011;60221;45.696;16.076;2022-08-21T07:41:36;3.97;;;1.60;;
72286;SDS011;60221;45.696;16.076;2022-08-21T07:44:02;8.90;;;2.90;;
72286;SDS011;60221;45.696;16.076;2022-08-21T07:46:28;5.67;;;2.10;;
72286;SDS011;60221;45.696;16.076;2022-08-21T07:48:55;3.70;;;1.60;;
72286;SDS011;60221;45.696;16.076;2022-08-21T07:51:24;5.87;;;2.30;;
72286;SDS011;60221;45.696;16.076;2022-08-21T07:53:55;3.70;;;1.47;;
72286;SDS011;60221;45.696;16.076;2022-08-21T07:56:24;4.72;;;1.90;;
72286;SDS011;60221;45.696;16.076;2022-08-21T07:58:52;4.45;;;1.32;;
72286;SDS011;60221;45.696;16.076;2022-08-21T08:01:19;4.03;;;1.65;;
72286;SDS011;60221;45.696;16.076;2022-08-21T08:03:45;5.77;;;1.87;;
72286;SDS011;60221;45.696;16.076;2022-08-21T08:06:12;5.35;;;1.77;;
72286;SDS011;60221;45.696;16.076;2022-08-21T08:08:39;3.62;;;1.32;;
72286;SDS011;60221;45.696;16.076;2022-08-21T08:11:08;6.37;;;1.80;;
72286;SDS011;60221;45.696;16.076;2022-08-21T08:13:40;3.90;;;1.30;;
72286;SDS011;60221;45.696;16.076;2022-08-21T08:16:09;5.53;;;1.53;;
72286;SDS011;60221;45.696;16.076;2022-08-21T08:18:36;3.20;;;1.32;;
72286;SDS011;60221;45.696;16.076;2022-08-21T08:21:03;4.87;;;1.57;;
72286;SDS011;60221;45.696;16.076;2022-08-21T08:23:31;3.55;;;1.55;;
72286;SDS011;60221;45.696;16.076;2022-08-21T08:25:58;5.87;;;2.02;;
72286;SDS011;60221;45.696;16.076;2022-08-21T08:28:27;4.33;;;1.60;;
72286;SDS011;60221;45.696;16.076;2022-08-21T08:30:55;7.17;;;2.58;;
72286;SDS011;60221;45.696;16.076;2022-08-21T08:33:21;4.25;;;1.87;;
72286;SDS011;60221;45.696;16.076;2022-08-21T08:35:48;6.93;;;1.97;;
72286;SDS011;60221;45.696;16.076;2022-08-21T08:38:19;6.08;;;2.22;;
72286;SDS011;60221;45.696;16.076;2022-08-21T08:43:52;5.40;;;1.60;;
72286;SDS011;60221;45.696;16.076;2022-08-21T08:46:20;5.25;;;1.82;;
72286;SDS011;60221;45.696;16.076;2022-08-21T08:49:06;4.83;;;1.87;;
72286;SDS011;60221;45.696;16.076;2022-08-21T08:51:44;4.08;;;1.70;;
72286;SDS011;60221;45.696;16.076;2022-08-21T08:54:17;4.42;;;1.90;;
72286;SDS011;60221;45.696;16.076;2022-08-21T08:57:01;5.40;;;2.08;;
72286;SDS011;60221;45.696;16.076;2022-08-21T08:59:27;3.02;;;1.32;;
72286;SDS011;60221;45.696;16.076;2022-08-21T09:02:08;4.50;;;2.17;;
72286;SDS011;60221;45.696;16.076;2022-08-21T09:04:38;3.50;;;1.87;;
72286;SDS011;60221;45.696;16.076;2022-08-21T09:10:05;3.40;;;1.45;;
72286;SDS011;60221;45.696;16.076;2022-08-21T09:26:43;3.37;;;1.70;;
72286;SDS011;60221;45.696;16.076;2022-08-21T09:29:19;2.70;;;1.20;;
72286;SDS011;60221;45.696;16.076;2022-08-21T09:31:49;2.72;;;1.45;;
72286;SDS011;60221;45.696;16.076;2022-08-21T09:34:23;2.75;;;1.50;;
72286;SDS011;60221;45.696;16.076;2022-08-21T09:36:50;4.62;;;2.90;;
72286;SDS011;60221;45.696;16.076;2022-08-21T09:39:27;3.37;;;1.53;;
72286;SDS011;60221;45.696;16.076;2022-08-21T09:41:58;3.65;;;1.80;;
72286;SDS011;60221;45.696;16.076;2022-08-21T09:44:29;3.85;;;1.70;;
72286;SDS011;60221;45.696;16.076;2022-08-21T09:47:01;5.83;;;2.02;;
72286;SDS011;60221;45.696;16.076;2022-08-21T09:49:32;3.42;;;1.52;;
72286;SDS011;60221;45.696;16.076;2022-08-21T09:52:00;3.73;;;1.47;;
72286;SDS011;60221;45.696;16.076;2022-08-21T09:54:29;3.00;;;1.32;;
72286;SDS011;60221;45.696;16.076;2022-08-21T09:57:45;4.35;;;1.90;;
72286;SDS011;60221;45.696;16.076;2022-08-21T10:00:07;4.33;;;2.08;;
72286;SDS011;60221;45.696;16.076;2022-08-21T10:02:37;3.30;;;1.45;;
72286;SDS011;60221;45.696;16.076;2022-08-21T10:05:07;3.47;;;1.80;;
72286;SDS011;60221;45.696;16.076;2022-08-21T10:07:44;2.55;;;1.17;;
72286;SDS011;60221;45.696;16.076;2022-08-21T10:10:17;3.83;;;1.70;;
72286;SDS011;60221;45.696;16.076;2022-08-21T10:12:49;3.80;;;1.70;;
72286;SDS011;60221;45.696;16.076;2022-08-21T10:15:39;3.10;;;1.50;;
72286;SDS011;60221;45.696;16.076;2022-08-21T10:21:40;2.77;;;1.15;;
72286;SDS011;60221;45.696;16.076;2022-08-21T10:29:55;2.85;;;1.10;;
72286;SDS011;60221;45.696;16.076;2022-08-21T10:32:49;2.50;;;1.00;;
72286;SDS011;60221;45.696;16.076;2022-08-21T10:35:40;2.83;;;1.22;;
72286;SDS011;60221;45.696;16.076;2022-08-21T10:38:15;3.10;;;1.17;;
72286;SDS011;60221;45.696;16.076;2022-08-21T10:40:50;3.58;;;1.17;;
72286;SDS011;60221;45.696;16.076;2022-08-21T10:43:28;4.45;;;1.00;;
72286;SDS011;60221;45.696;16.076;2022-08-21T10:46:12;2.60;;;0.90;;
72286;SDS011;60221;45.696;16.076;2022-08-21T10:49:02;2.50;;;0.95;;
72286;SDS011;60221;45.696;16.076;2022-08-21T10:54:44;3.17;;;1.30;;
72286;SDS011;60221;45.696;16.076;2022-08-21T11:00:13;3.93;;;1.30;;
72286;SDS011;60221;45.696;16.076;2022-08-21T11:02:56;2.75;;;1.10;;
72286;SDS011;60221;45.696;16.076;2022-08-21T11:05:34;3.42;;;0.98;;
72286;SDS011;60221;45.696;16.076;2022-08-21T11:08:21;3.10;;;0.90;;
72286;SDS011;60221;45.696;16.076;2022-08-21T11:11:01;4.12;;;1.30;;
72286;SDS011;60221;45.696;16.076;2022-08-21T11:16:21;3.80;;;1.05;;
72286;SDS011;60221;45.696;16.076;2022-08-21T11:19:21;2.45;;;0.90;;
72286;SDS011;60221;45.696;16.076;2022-08-21T11:24:50;2.20;;;0.72;;
72286;SDS011;60221;45.696;16.076;2022-08-21T11:30:24;2.37;;;0.80;;
72286;SDS011;60221;45.696;16.076;2022-08-21T11:38:27;2.42;;;1.10;;
72286;SDS011;60221;45.696;16.076;2022-08-21T11:41:13;2.50;;;0.97;;
72286;SDS011;60221;45.696;16.076;2022-08-21T11:44:01;3.33;;;1.05;;
72286;SDS011;60221;45.696;16.076;2022-08-21T11:46:55;2.87;;;1.10;;
72286;SDS011;60221;45.696;16.076;2022-08-21T11:52:51;2.62;;;0.90;;
72286;SDS011;60221;45.696;16.076;2022-08-21T11:58:18;2.45;;;0.98;;
72286;SDS011;60221;45.696;16.076;2022-08-21T12:00:59;2.55;;;0.80;;
72286;SDS011;60221;45.696;16.076;2022-08-21T12:03:42;2.65;;;1.00;;
72286;SDS011;60221;45.696;16.076;2022-08-21T12:06:33;2.22;;;0.78;;
72286;SDS011;60221;45.696;16.076;2022-08-21T12:09:03;2.73;;;0.80;;
72286;SDS011;60221;45.696;16.076;2022-08-21T12:11:49;2.00;;;0.70;;
72286;SDS011;60221;45.696;16.076;2022-08-21T12:14:38;2.12;;;0.53;;
72286;SDS011;60221;45.696;16.076;2022-08-21T12:17:58;1.90;;;0.60;;
72286;SDS011;60221;45.696;16.076;2022-08-21T12:20:01;2.15;;;0.70;;
72286;SDS011;60221;45.696;16.076;2022-08-21T12:22:54;4.17;;;0.90;;
72286;SDS011;60221;45.696;16.076;2022-08-21T12:25:38;1.90;;;0.70;;
72286;SDS011;60221;45.696;16.076;2022-08-21T12:28:12;2.05;;;0.60;;
72286;SDS011;60221;45.696;16.076;2022-08-21T12:30:46;6.17;;;0.70;;
72286;SDS011;60221;45.696;16.076;2022-08-21T12:36:03;2.40;;;0.70;;
72286;SDS011;60221;45.696;16.076;2022-08-21T12:38:42;3.05;;;0.50;;
72286;SDS011;60221;45.696;16.076;2022-08-21T12:41:28;2.05;;;0.60;;
72286;SDS011;60221;45.696;16.076;2022-08-21T12:44:14;3.02;;;0.60;;
72286;SDS011;60221;45.696;16.076;2022-08-21T12:46:45;2.87;;;0.93;;
72286;SDS011;60221;45.696;16.076;2022-08-21T12:54:52;2.08;;;0.70;;
72286;SDS011;60221;45.696;16.076;2022-08-21T12:57:23;2.53;;;0.80;;
72286;SDS011;60221;45.696;16.076;2022-08-21T12:59:52;2.05;;;0.70;;
72286;SDS011;60221;45.696;16.076;2022-08-21T13:02:23;3.22;;;0.70;;
72286;SDS011;60221;45.696;16.076;2022-08-21T13:04:53;2.72;;;0.70;;
72286;SDS011;60221;45.696;16.076;2022-08-21T13:07:24;2.45;;;0.60;;
72286;SDS011;60221;45.696;16.076;2022-08-21T13:10:02;2.17;;;0.77;;
72286;SDS011;60221;45.696;16.076;2022-08-21T13:12:28;1.47;;;0.30;;
72286;SDS011;60221;45.696;16.076;2022-08-21T13:14:57;2.58;;;0.62;;
72286;SDS011;60221;45.696;16.076;2022-08-21T13:17:27;2.30;;;0.60;;
72286;SDS011;60221;45.696;16.076;2022-08-21T13:20:00;3.02;;;0.70;;
72286;SDS011;60221;45.696;16.076;2022-08-21T13:22:40;2.20;;;0.70;;
72286;SDS011;60221;45.696;16.076;2022-08-21T13:25:14;2.33;;;0.62;;
72286;SDS011;60221;45.696;16.076;2022-08-21T13:27:44;2.27;;;0.80;;
72286;SDS011;60221;45.696;16.076;2022-08-21T13:30:34;3.05;;;0.80;;
72286;SDS011;60221;45.696;16.076;2022-08-21T13:33:17;3.58;;;0.70;;
72286;SDS011;60221;45.696;16.076;2022-08-21T13:38:34;1.72;;;0.40;;
72286;SDS011;60221;45.696;16.076;2022-08-21T13:43:58;1.75;;;0.50;;
72286;SDS011;60221;45.696;16.076;2022-08-21T13:46:35;2.30;;;0.90;;
72286;SDS011;60221;45.696;16.076;2022-08-21T13:49:03;2.87;;;0.67;;
72286;SDS011;60221;45.696;16.076;2022-08-21T13:51:31;2.98;;;0.90;;
72286;SDS011;60221;45.696;16.076;2022-08-21T13:53:59;4.33;;;0.90;;
72286;SDS011;60221;45.696;16.076;2022-08-21T13:59:01;2.33;;;0.60;;
72286;SDS011;60221;45.696;16.076;2022-08-21T14:01:33;2.10;;;0.53;;
72286;SDS011;60221;45.696;16.076;2022-08-21T14:04:07;2.42;;;0.70;;
72286;SDS011;60221;45.696;16.076;2022-08-21T14:06:51;3.00;;;0.90;;
72286;SDS011;60221;45.696;16.076;2022-08-21T14:09:24;3.70;;;0.60;;
72286;SDS011;60221;45.696;16.076;2022-08-21T14:11:54;2.12;;;0.60;;
72286;SDS011;60221;45.696;16.076;2022-08-21T14:14:26;2.30;;;0.73;;
72286;SDS011;60221;45.696;16.076;2022-08-21T14:19:36;2.90;;;0.95;;
72286;SDS011;60221;45.696;16.076;2022-08-21T14:27:55;2.17;;;0.60;;
72286;SDS011;60221;45.696;16.076;2022-08-21T14:30:35;2.20;;;0.30;;
72286;SDS011;60221;45.696;16.076;2022-08-21T14:33:09;1.62;;;0.45;;
72286;SDS011;60221;45.696;16.076;2022-08-21T14:35:40;1.47;;;0.37;;
72286;SDS011;60221;45.696;16.076;2022-08-21T14:38:11;1.77;;;0.40;;
72286;SDS011;60221;45.696;16.076;2022-08-21T14:40:41;1.97;;;0.53;;
72286;SDS011;60221;45.696;16.076;2022-08-21T14:43:11;1.65;;;0.50;;
72286;SDS011;60221;45.696;16.076;2022-08-21T14:45:37;1.70;;;0.50;;
72286;SDS011;60221;45.696;16.076;2022-08-21T14:48:06;1.50;;;0.35;;
72286;SDS011;60221;45.696;16.076;2022-08-21T14:50:33;1.80;;;0.50;;
72286;SDS011;60221;45.696;16.076;2022-08-21T14:52:59;1.43;;;0.40;;
72286;SDS011;60221;45.696;16.076;2022-08-21T14:55:26;1.90;;;0.40;;
72286;SDS011;60221;45.696;16.076;2022-08-21T14:57:54;1.95;;;0.55;;
72286;SDS011;60221;45.696;16.076;2022-08-21T15:00:22;2.33;;;0.60;;
72286;SDS011;60221;45.696;16.076;2022-08-21T15:02:51;2.10;;;0.60;;
72286;SDS011;60221;45.696;16.076;2022-08-21T15:05:18;1.80;;;0.60;;
72286;SDS011;60221;45.696;16.076;2022-08-21T15:07:44;1.70;;;0.40;;
72286;SDS011;60221;45.696;16.076;2022-08-21T15:10:10;1.57;;;0.50;;
72286;SDS011;60221;45.696;16.076;2022-08-21T15:12:37;2.05;;;0.50;;
72286;SDS011;60221;45.696;16.076;2022-08-21T15:15:06;7.83;;;2.27;;
72286;SDS011;60221;45.696;16.076;2022-08-21T15:17:33;1.90;;;0.70;;
72286;SDS011;60221;45.696;16.076;2022-08-21T15:20:01;1.80;;;0.60;;
72286;SDS011;60221;45.696;16.076;2022-08-21T15:22:29;3.85;;;1.47;;
72286;SDS011;60221;45.696;16.076;2022-08-21T15:24:55;1.90;;;0.55;;
72286;SDS011;60221;45.696;16.076;2022-08-21T15:27:21;1.30;;;0.40;;
72286;SDS011;60221;45.696;16.076;2022-08-21T15:29:47;1.57;;;0.40;;
72286;SDS011;60221;45.696;16.076;2022-08-21T15:32:17;1.63;;;0.40;;
72286;SDS011;60221;45.696;16.076;2022-08-21T15:34:48;1.62;;;0.40;;
72286;SDS011;60221;45.696;16.076;2022-08-21T15:37:16;1.67;;;0.50;;
72286;SDS011;60221;45.696;16.076;2022-08-21T15:39:43;1.47;;;0.40;;
72286;SDS011;60221;45.696;16.076;2022-08-21T15:42:10;1.67;;;0.40;;
72286;SDS011;60221;45.696;16.076;2022-08-21T15:44:38;1.77;;;0.40;;
72286;SDS011;60221;45.696;16.076;2022-08-21T15:47:06;1.42;;;0.45;;
72286;SDS011;60221;45.696;16.076;2022-08-21T15:49:42;2.05;;;0.70;;
72286;SDS011;60221;45.696;16.076;2022-08-21T15:52:14;1.42;;;0.40;;
72286;SDS011;60221;45.696;16.076;2022-08-21T15:54:44;1.98;;;0.55;;
72286;SDS011;60221;45.696;16.076;2022-08-21T15:57:15;2.03;;;0.50;;
72286;SDS011;60221;45.696;16.076;2022-08-21T15:59:46;1.77;;;0.50;;
72286;SDS011;60221;45.696;16.076;2022-08-21T16:02:22;1.52;;;0.40;;
72286;SDS011;60221;45.696;16.076;2022-08-21T16:04:51;1.65;;;0.40;;
72286;SDS011;60221;45.696;16.076;2022-08-21T16:07:18;1.75;;;0.37;;
72286;SDS011;60221;45.696;16.076;2022-08-21T16:09:45;1.80;;;0.53;;
72286;SDS011;60221;45.696;16.076;2022-08-21T16:12:13;3.25;;;0.70;;
72286;SDS011;60221;45.696;16.076;2022-08-21T16:14:44;2.37;;;0.60;;
72286;SDS011;60221;45.696;16.076;2022-08-21T16:17:10;2.42;;;0.70;;